sensor_id;sensor_type;location;lat;lon;timestamp;pressure;altitude;pressure_sealevel;temperature;humidity
75036;BME280;64247;51.540;5.854;2023-01-29T00:00:42;102736.75;;;-3.64;100.00
75036;BME280;64247;51.540;5.854;2023-01-29T00:02:42;102735.75;;;-3.63;100.00
75036;BME280;64247;51.540;5.854;2023-01-29T00:04:43;102744.34;;;-3.61;100.00
75036;BME280;64247;51.540;5.854;2023-01-29T00:06:44;102735.34;;;-3.60;100.00
75036;BME280;64247;51.540;5.854;2023-01-29T00:08:45;102735.97;;;-3.58;100.00
75036;BME280;64247;51.540;5.854;2023-01-29T00:10:46;102742.69;;;-3.56;100.00
75036;BME280;64247;51.540;5.854;2023-01-29T00:12:47;102733.53;;;-3.53;100.00
75036;BME280;64247;51.540;5.854;2023-01-29T00:14:48;102732.13;;;-3.49;100.00
75036;BME280;64247;51.540;5.854;2023-01-29T00:16:49;102738.06;;;-3.47;100.00
75036;BME280;64247;51.540;5.854;2023-01-29T00:18:50;102734.19;;;-3.44;100.00
75036;BME280;64247;51.540;5.854;2023-01-29T00:20:51;102727.66;;;-3.42;100.00
75036;BME280;64247;51.540;5.854;2023-01-29T00:22:53;102723.97;;;-3.41;100.00
75036;BME280;64247;51.540;5.854;2023-01-29T00:24:54;102721.75;;;-3.37;100.00
75036;BME280;64247;51.540;5.854;2023-01-29T00:26:54;102714.19;;;-3.34;100.00
75036;BME280;64247;51.540;5.854;2023-01-29T00:28:55;102722.19;;;-3.27;100.00
75036;BME280;64247;51.540;5.854;2023-01-29T00:30:56;102719.72;;;-3.22;100.00
75036;BME280;64247;51.540;5.854;2023-01-29T00:32:57;102717.50;;;-3.18;100.00
75036;BME280;64247;51.540;5.854;2023-01-29T00:35:00;102706.66;;;-3.16;100.00
75036;BME280;64247;51.540;5.854;2023-01-29T00:37:01;102708.09;;;-3.14;100.00
75036;BME280;64247;51.540;5.854;2023-01-29T00:39:04;102709.53;;;-3.11;100.00
75036;BME280;64247;51.540;5.854;2023-01-29T00:41:12;102714.84;;;-3.11;100.00
75036;BME280;64247;51.540;5.854;2023-01-29T00:43:34;102715.44;;;-3.09;100.00
75036;BME280;64247;51.540;5.854;2023-01-29T00:45:53;102712.63;;;-3.08;100.00
75036;BME280;64247;51.540;5.854;2023-01-29T00:47:54;102707.72;;;-3.04;100.00
75036;BME280;64247;51.540;5.854;2023-01-29T00:49:55;102707.50;;;-3.03;100.00
75036;BME280;64247;51.540;5.854;2023-01-29T00:51:57;102698.31;;;-3.07;100.00
75036;BME280;64247;51.540;5.854;2023-01-29T00:54:16;102698.31;;;-3.07;100.00
75036;BME280;64247;51.540;5.854;2023-01-29T00:56:17;102691.38;;;-3.08;100.00
75036;BME280;64247;51.540;5.854;2023-01-29T00:58:18;102691.97;;;-3.12;100.00
75036;BME280;64247;51.540;5.854;2023-01-29T01:00:21;102681.94;;;-3.17;100.00
75036;BME280;64247;51.540;5.854;2023-01-29T01:02:24;102686.00;;;-3.21;100.00
75036;BME280;64247;51.540;5.854;2023-01-29T01:04:44;102679.09;;;-3.22;100.00
75036;BME280;64247;51.540;5.854;2023-01-29T01:06:45;102677.44;;;-3.23;100.00
75036;BME280;64247;51.540;5.854;2023-01-29T01:08:45;102670.88;;;-3.27;100.00
75036;BME280;64247;51.540;5.854;2023-01-29T01:11:05;102670.69;;;-3.32;100.00
75036;BME280;64247;51.540;5.854;2023-01-29T01:13:06;102666.59;;;-3.35;100.00
75036;BME280;64247;51.540;5.854;2023-01-29T01:15:09;102667.41;;;-3.35;100.00
75036;BME280;64247;51.540;5.854;2023-01-29T01:17:10;102670.06;;;-3.35;100.00
75036;BME280;64247;51.540;5.854;2023-01-29T01:19:11;102676.81;;;-3.39;100.00
75036;BME280;64247;51.540;5.854;2023-01-29T01:21:13;102671.25;;;-3.44;100.00
75036;BME280;64247;51.540;5.854;2023-01-29T01:23:14;102677.16;;;-3.48;100.00
75036;BME280;64247;51.540;5.854;2023-01-29T01:25:15;102675.72;;;-3.51;100.00
75036;BME280;64247;51.540;5.854;2023-01-29T01:27:17;102674.31;;;-3.54;100.00
75036;BME280;64247;51.540;5.854;2023-01-29T01:29:19;102669.41;;;-3.57;100.00
75036;BME280;64247;51.540;5.854;2023-01-29T01:31:19;102676.13;;;-3.61;100.00
75036;BME280;64247;51.540;5.854;2023-01-29T01:33:20;102677.13;;;-3.62;100.00
75036;BME280;64247;51.540;5.854;2023-01-29T01:35:22;102675.50;;;-3.63;100.00
75036;BME280;64247;51.540;5.854;2023-01-29T01:37:23;102674.28;;;-3.67;100.00
75036;BME280;64247;51.540;5.854;2023-01-29T01:39:24;102680.59;;;-3.68;100.00
75036;BME280;64247;51.540;5.854;2023-01-29T01:41:25;102679.97;;;-3.70;100.00
75036;BME280;64247;51.540;5.854;2023-01-29T01:43:26;102683.03;;;-3.73;100.00
75036;BME280;64247;51.540;5.854;2023-01-29T01:45:34;102676.88;;;-3.74;100.00
75036;BME280;64247;51.540;5.854;2023-01-29T01:47:47;102683.41;;;-3.76;100.00
75036;BME280;64247;51.540;5.854;2023-01-29T01:49:55;102684.44;;;-3.77;100.00
75036;BME280;64247;51.540;5.854;2023-01-29T01:52:11;102685.88;;;-3.75;100.00
75036;BME280;64247;51.540;5.854;2023-01-29T01:56:47;102689.34;;;-3.74;100.00
75036;BME280;64247;51.540;5.854;2023-01-29T01:58:56;102689.94;;;-3.79;100.00
75036;BME280;64247;51.540;5.854;2023-01-29T02:00:59;102683.22;;;-3.82;100.00
75036;BME280;64247;51.540;5.854;2023-01-29T02:03:01;102688.31;;;-3.80;100.00
75036;BME280;64247;51.540;5.854;2023-01-29T02:05:22;102687.50;;;-3.80;100.00
75036;BME280;64247;51.540;5.854;2023-01-29T02:07:45;102688.69;;;-3.83;100.00
75036;BME280;64247;51.540;5.854;2023-01-29T02:10:11;102688.25;;;-3.87;100.00
75036;BME280;64247;51.540;5.854;2023-01-29T02:12:15;102690.13;;;-3.87;100.00
75036;BME280;64247;51.540;5.854;2023-01-29T02:14:17;102677.66;;;-3.87;100.00
75036;BME280;64247;51.540;5.854;2023-01-29T02:16:20;102684.00;;;-3.88;100.00
75036;BME280;64247;51.540;5.854;2023-01-29T02:18:22;102684.00;;;-3.88;100.00
75036;BME280;64247;51.540;5.854;2023-01-29T02:20:26;102683.16;;;-3.88;100.00
75036;BME280;64247;51.540;5.854;2023-01-29T02:29:04;102705.41;;;-3.96;100.00
75036;BME280;64247;51.540;5.854;2023-01-29T02:31:41;102701.91;;;-3.97;100.00
75036;BME280;64247;51.540;5.854;2023-01-29T02:34:10;102693.53;;;-4.00;100.00
75036;BME280;64247;51.540;5.854;2023-01-29T02:37:18;102698.03;;;-4.01;100.00
75036;BME280;64247;51.540;5.854;2023-01-29T02:42:56;102701.31;;;-3.99;100.00
75036;BME280;64247;51.540;5.854;2023-01-29T02:45:27;102690.69;;;-3.99;100.00
75036;BME280;64247;51.540;5.854;2023-01-29T02:50:14;102686.41;;;-4.00;100.00
75036;BME280;64247;51.540;5.854;2023-01-29T02:52:25;102699.25;;;-3.97;100.00
75036;BME280;64247;51.540;5.854;2023-01-29T02:54:45;102700.09;;;-3.96;100.00
75036;BME280;64247;51.540;5.854;2023-01-29T02:57:01;102693.78;;;-3.95;100.00
75036;BME280;64247;51.540;5.854;2023-01-29T02:59:36;102691.13;;;-3.95;100.00
75036;BME280;64247;51.540;5.854;2023-01-29T03:02:09;102682.94;;;-3.93;100.00
75036;BME280;64247;51.540;5.854;2023-01-29T03:04:23;102678.44;;;-3.93;100.00
75036;BME280;64247;51.540;5.854;2023-01-29T03:06:42;102687.66;;;-3.89;100.00
75036;BME280;64247;51.540;5.854;2023-01-29T03:09:40;102682.38;;;-3.82;100.00
75036;BME280;64247;51.540;5.854;2023-01-29T03:11:40;102683.84;;;-3.73;100.00
75036;BME280;64247;51.540;5.854;2023-01-29T03:14:11;102685.28;;;-3.70;100.00
75036;BME280;64247;51.540;5.854;2023-01-29T03:16:53;102689.19;;;-3.66;100.00
75036;BME280;64247;51.540;5.854;2023-01-29T03:19:32;102687.16;;;-3.64;100.00
75036;BME280;64247;51.540;5.854;2023-01-29T03:21:53;102669.38;;;-3.63;100.00
75036;BME280;64247;51.540;5.854;2023-01-29T03:24:02;102673.47;;;-3.61;100.00
75036;BME280;64247;51.540;5.854;2023-01-29T03:26:25;102677.97;;;-3.61;100.00
75036;BME280;64247;51.540;5.854;2023-01-29T03:28:45;102672.84;;;-3.63;100.00
75036;BME280;64247;51.540;5.854;2023-01-29T03:31:10;102683.28;;;-3.61;100.00
75036;BME280;64247;51.540;5.854;2023-01-29T03:34:20;102680.03;;;-3.57;100.00
75036;BME280;64247;51.540;5.854;2023-01-29T03:36:13;102681.84;;;-3.57;100.00
75036;BME280;64247;51.540;5.854;2023-01-29T03:38:18;102689.59;;;-3.56;100.00
75036;BME280;64247;51.540;5.854;2023-01-29T03:40:21;102674.09;;;-3.52;100.00
75036;BME280;64247;51.540;5.854;2023-01-29T03:48:31;102679.63;;;-3.40;100.00
75036;BME280;64247;51.540;5.854;2023-01-29T03:51:07;102673.94;;;-3.37;100.00
75036;BME280;64247;51.540;5.854;2023-01-29T03:53:29;102673.53;;;-3.34;100.00
75036;BME280;64247;51.540;5.854;2023-01-29T03:56:20;102660.47;;;-3.29;100.00
75036;BME280;64247;51.540;5.854;2023-01-29T03:58:49;102661.09;;;-3.27;100.00
75036;BME280;64247;51.540;5.854;2023-01-29T04:01:15;102657.41;;;-3.26;100.00
75036;BME280;64247;51.540;5.854;2023-01-29T04:05:58;102662.72;;;-3.06;100.00
75036;BME280;64247;51.540;5.854;2023-01-29T04:09:08;102647.84;;;-3.07;100.00
75036;BME280;64247;51.540;5.854;2023-01-29T04:11:32;102647.41;;;-3.04;100.00
75036;BME280;64247;51.540;5.854;2023-01-29T04:13:37;102650.66;;;-2.95;100.00
75036;BME280;64247;51.540;5.854;2023-01-29T04:15:46;102640.03;;;-2.95;100.00
75036;BME280;64247;51.540;5.854;2023-01-29T04:17:59;102643.94;;;-2.97;100.00
75036;BME280;64247;51.540;5.854;2023-01-29T04:20:10;102643.13;;;-2.98;100.00
75036;BME280;64247;51.540;5.854;2023-01-29T04:22:22;102643.34;;;-2.99;100.00
75036;BME280;64247;51.540;5.854;2023-01-29T04:24:27;102643.94;;;-2.97;100.00
75036;BME280;64247;51.540;5.854;2023-01-29T04:32:22;102630.63;;;-2.97;100.00
75036;BME280;64247;51.540;5.854;2023-01-29T04:34:58;102639.44;;;-2.97;100.00
75036;BME280;64247;51.540;5.854;2023-01-29T04:37:16;102641.91;;;-2.95;100.00
75036;BME280;64247;51.540;5.854;2023-01-29T04:39:33;102641.28;;;-2.91;100.00
75036;BME280;64247;51.540;5.854;2023-01-29T04:42:12;102638.41;;;-2.89;100.00
75036;BME280;64247;51.540;5.854;2023-01-29T04:50:57;102621.63;;;-2.83;100.00
75036;BME280;64247;51.540;5.854;2023-01-29T04:53:27;102615.13;;;-2.80;100.00
75036;BME280;64247;51.540;5.854;2023-01-29T04:56:03;102613.03;;;-2.78;100.00
75036;BME280;64247;51.540;5.854;2023-01-29T04:58:39;102606.94;;;-2.72;100.00
75036;BME280;64247;51.540;5.854;2023-01-29T05:00:47;102602.81;;;-2.68;100.00
75036;BME280;64247;51.540;5.854;2023-01-29T05:02:53;102591.16;;;-2.67;100.00
75036;BME280;64247;51.540;5.854;2023-01-29T05:04:57;102595.44;;;-2.66;100.00
75036;BME280;64247;51.540;5.854;2023-01-29T05:07:07;102593.38;;;-2.64;100.00
75036;BME280;64247;51.540;5.854;2023-01-29T05:09:12;102585.81;;;-2.60;100.00
75036;BME280;64247;51.540;5.854;2023-01-29T05:11:17;102587.03;;;-2.56;100.00
75036;BME280;64247;51.540;5.854;2023-01-29T05:13:20;102586.41;;;-2.51;100.00
75036;BME280;64247;51.540;5.854;2023-01-29T05:15:26;102575.75;;;-2.45;100.00
75036;BME280;64247;51.540;5.854;2023-01-29T05:17:33;102573.47;;;-2.41;100.00
75036;BME280;64247;51.540;5.854;2023-01-29T05:19:34;102580.63;;;-2.35;100.00
75036;BME280;64247;51.540;5.854;2023-01-29T05:21:35;102581.84;;;-2.31;100.00
75036;BME280;64247;51.540;5.854;2023-01-29T05:23:36;102585.31;;;-2.30;100.00
75036;BME280;64247;51.540;5.854;2023-01-29T05:25:37;102575.50;;;-2.30;100.00
75036;BME280;64247;51.540;5.854;2023-01-29T05:27:38;102575.50;;;-2.30;100.00
75036;BME280;64247;51.540;5.854;2023-01-29T05:29:57;102573.84;;;-2.31;100.00
75036;BME280;64247;51.540;5.854;2023-01-29T05:31:58;102580.19;;;-2.32;100.00
75036;BME280;64247;51.540;5.854;2023-01-29T05:33:59;102577.53;;;-2.32;100.00
75036;BME280;64247;51.540;5.854;2023-01-29T05:36:00;102569.94;;;-2.28;100.00
75036;BME280;64247;51.540;5.854;2023-01-29T05:38:01;102574.25;;;-2.27;100.00
75036;BME280;64247;51.540;5.854;2023-01-29T05:40:02;102571.38;;;-2.26;100.00
75036;BME280;64247;51.540;5.854;2023-01-29T05:42:03;102562.97;;;-2.23;100.00
75036;BME280;64247;51.540;5.854;2023-01-29T05:44:04;102562.56;;;-2.19;100.00
75036;BME280;64247;51.540;5.854;2023-01-29T05:46:05;102561.50;;;-2.12;100.00
75036;BME280;64247;51.540;5.854;2023-01-29T05:48:06;102562.91;;;-2.09;100.00
75036;BME280;64247;51.540;5.854;2023-01-29T05:50:08;102560.47;;;-2.11;100.00
75036;BME280;64247;51.540;5.854;2023-01-29T05:52:09;102564.13;;;-2.05;100.00
75036;BME280;64247;51.540;5.854;2023-01-29T05:54:11;102577.59;;;-2.00;100.00
75036;BME280;64247;51.540;5.854;2023-01-29T05:56:12;102572.88;;;-1.98;100.00
75036;BME280;64247;51.540;5.854;2023-01-29T05:58:13;102584.56;;;-1.99;100.00
75036;BME280;64247;51.540;5.854;2023-01-29T06:00:14;102588.03;;;-1.98;100.00
75036;BME280;64247;51.540;5.854;2023-01-29T06:02:15;102585.19;;;-1.97;100.00
75036;BME280;64247;51.540;5.854;2023-01-29T06:04:16;102590.06;;;-1.94;100.00
75036;BME280;64247;51.540;5.854;2023-01-29T06:06:17;102595.78;;;-1.90;100.00
75036;BME280;64247;51.540;5.854;2023-01-29T06:08:18;102599.03;;;-1.88;100.00
75036;BME280;64247;51.540;5.854;2023-01-29T06:10:19;102605.56;;;-1.84;100.00
75036;BME280;64247;51.540;5.854;2023-01-29T06:12:20;102608.63;;;-1.80;100.00
75036;BME280;64247;51.540;5.854;2023-01-29T06:14:21;102606.94;;;-1.75;100.00
75036;BME280;64247;51.540;5.854;2023-01-29T06:16:22;102613.50;;;-1.70;100.00
75036;BME280;64247;51.540;5.854;2023-01-29T06:18:23;102607.13;;;-1.69;100.00
75036;BME280;64247;51.540;5.854;2023-01-29T06:20:24;102606.47;;;-1.65;100.00
75036;BME280;64247;51.540;5.854;2023-01-29T06:22:25;102615.25;;;-1.57;100.00
75036;BME280;64247;51.540;5.854;2023-01-29T06:24:26;102616.88;;;-1.56;100.00
75036;BME280;64247;51.540;5.854;2023-01-29T06:26:27;102632.03;;;-1.57;100.00
75036;BME280;64247;51.540;5.854;2023-01-29T06:28:27;102617.47;;;-1.54;100.00
75036;BME280;64247;51.540;5.854;2023-01-29T06:30:29;102607.44;;;-1.52;100.00
75036;BME280;64247;51.540;5.854;2023-01-29T06:32:31;102591.41;;;-1.46;100.00
75036;BME280;64247;51.540;5.854;2023-01-29T06:34:32;102588.75;;;-1.46;100.00
75036;BME280;64247;51.540;5.854;2023-01-29T06:36:33;102589.78;;;-1.47;100.00
75036;BME280;64247;51.540;5.854;2023-01-29T06:38:34;102587.16;;;-1.53;100.00
75036;BME280;64247;51.540;5.854;2023-01-29T06:40:37;102581.88;;;-1.60;100.00
75036;BME280;64247;51.540;5.854;2023-01-29T06:42:38;102577.19;;;-1.65;100.00
75036;BME280;64247;51.540;5.854;2023-01-29T06:44:39;102569.59;;;-1.61;100.00
75036;BME280;64247;51.540;5.854;2023-01-29T06:46:40;102577.97;;;-1.57;100.00
75036;BME280;64247;51.540;5.854;2023-01-29T06:48:41;102583.50;;;-1.59;100.00
75036;BME280;64247;51.540;5.854;2023-01-29T06:50:43;102575.97;;;-1.62;100.00
75036;BME280;64247;51.540;5.854;2023-01-29T06:52:44;102575.97;;;-1.62;100.00
75036;BME280;64247;51.540;5.854;2023-01-29T06:54:45;102569.78;;;-1.63;100.00
75036;BME280;64247;51.540;5.854;2023-01-29T06:56:46;102572.47;;;-1.63;100.00
75036;BME280;64247;51.540;5.854;2023-01-29T06:58:47;102558.88;;;-1.54;100.00
75036;BME280;64247;51.540;5.854;2023-01-29T07:00:49;102559.72;;;-1.54;100.00
75036;BME280;64247;51.540;5.854;2023-01-29T07:02:50;102556.81;;;-1.52;100.00
75036;BME280;64247;51.540;5.854;2023-01-29T07:04:51;102556.38;;;-1.49;100.00
75036;BME280;64247;51.540;5.854;2023-01-29T07:06:52;102557.59;;;-1.45;100.00
75036;BME280;64247;51.540;5.854;2023-01-29T07:08:53;102562.69;;;-1.44;100.00
75036;BME280;64247;51.540;5.854;2023-01-29T07:10:59;102561.25;;;-1.39;100.00
75036;BME280;64247;51.540;5.854;2023-01-29T07:13:01;102562.66;;;-1.37;100.00
75036;BME280;64247;51.540;5.854;2023-01-29T07:15:02;102571.03;;;-1.33;100.00
75036;BME280;64247;51.540;5.854;2023-01-29T07:17:03;102571.81;;;-1.33;100.00
75036;BME280;64247;51.540;5.854;2023-01-29T07:19:04;102578.56;;;-1.30;100.00
75036;BME280;64247;51.540;5.854;2023-01-29T07:21:05;102577.34;;;-1.28;100.00
75036;BME280;64247;51.540;5.854;2023-01-29T07:23:10;102571.78;;;-1.26;100.00
75036;BME280;64247;51.540;5.854;2023-01-29T07:25:12;102574.44;;;-1.26;100.00
75036;BME280;64247;51.540;5.854;2023-01-29T07:27:13;102577.13;;;-1.26;100.00
75036;BME280;64247;51.540;5.854;2023-01-29T07:29:14;102571.94;;;-1.21;100.00
75036;BME280;64247;51.540;5.854;2023-01-29T07:31:15;102569.28;;;-1.21;100.00
75036;BME280;64247;51.540;5.854;2023-01-29T07:33:16;102567.22;;;-1.19;100.00
75036;BME280;64247;51.540;5.854;2023-01-29T07:35:16;102578.47;;;-1.17;100.00
75036;BME280;64247;51.540;5.854;2023-01-29T07:37:17;102572.13;;;-1.16;100.00
75036;BME280;64247;51.540;5.854;2023-01-29T07:39:18;102565.31;;;-1.12;100.00
75036;BME280;64247;51.540;5.854;2023-01-29T07:41:19;102559.75;;;-1.10;100.00
75036;BME280;64247;51.540;5.854;2023-01-29T07:43:20;102551.31;;;-1.07;100.00
75036;BME280;64247;51.540;5.854;2023-01-29T07:45:24;102553.94;;;-1.00;100.00
75036;BME280;64247;51.540;5.854;2023-01-29T07:47:25;102553.94;;;-1.00;100.00
75036;BME280;64247;51.540;5.854;2023-01-29T07:49:25;102556.75;;;-0.95;100.00
75036;BME280;64247;51.540;5.854;2023-01-29T07:51:26;102553.63;;;-0.92;100.00
75036;BME280;64247;51.540;5.854;2023-01-29T07:53:27;102555.06;;;-0.89;100.00
75036;BME280;64247;51.540;5.854;2023-01-29T07:55:30;102554.44;;;-0.91;100.00
75036;BME280;64247;51.540;5.854;2023-01-29T07:57:32;102572.09;;;-0.90;100.00
75036;BME280;64247;51.540;5.854;2023-01-29T07:59:33;102570.03;;;-0.88;100.00
75036;BME280;64247;51.540;5.854;2023-01-29T08:01:34;102559.94;;;-0.86;100.00
75036;BME280;64247;51.540;5.854;2023-01-29T08:03:35;102561.34;;;-0.84;100.00
75036;BME280;64247;51.540;5.854;2023-01-29T08:05:36;102560.31;;;-0.83;100.00
75036;BME280;64247;51.540;5.854;2023-01-29T08:07:37;102557.63;;;-0.83;100.00
75036;BME280;64247;51.540;5.854;2023-01-29T08:09:38;102558.25;;;-0.81;100.00
75036;BME280;64247;51.540;5.854;2023-01-29T08:11:39;102560.47;;;-0.77;100.00
75036;BME280;64247;51.540;5.854;2023-01-29T08:13:40;102562.91;;;-0.76;100.00
75036;BME280;64247;51.540;5.854;2023-01-29T08:15:43;102567.81;;;-0.73;100.00
75036;BME280;64247;51.540;5.854;2023-01-29T08:17:45;102562.47;;;-0.73;100.00
75036;BME280;64247;51.540;5.854;2023-01-29T08:19:45;102562.75;;;-0.62;99.94
75036;BME280;64247;51.540;5.854;2023-01-29T08:21:46;102551.06;;;-0.61;100.00
75036;BME280;64247;51.540;5.854;2023-01-29T08:23:48;102550.38;;;-0.57;99.63
75036;BME280;64247;51.540;5.854;2023-01-29T08:25:49;102563.06;;;-0.52;99.26
75036;BME280;64247;51.540;5.854;2023-01-29T08:27:50;102546.03;;;-0.51;99.27
75036;BME280;64247;51.540;5.854;2023-01-29T08:29:51;102541.72;;;-0.52;99.31
75036;BME280;64247;51.540;5.854;2023-01-29T08:31:51;102545.56;;;-0.48;99.19
75036;BME280;64247;51.540;5.854;2023-01-29T08:33:53;102533.06;;;-0.47;99.23
75036;BME280;64247;51.540;5.854;2023-01-29T08:35:55;102536.53;;;-0.47;98.68
75036;BME280;64247;51.540;5.854;2023-01-29T08:37:58;102536.53;;;-0.47;98.89
75036;BME280;64247;51.540;5.854;2023-01-29T08:40:01;102530.38;;;-0.47;98.97
75036;BME280;64247;51.540;5.854;2023-01-29T08:42:03;102528.28;;;-0.45;98.69
75036;BME280;64247;51.540;5.854;2023-01-29T08:44:04;102523.19;;;-0.47;98.75
75036;BME280;64247;51.540;5.854;2023-01-29T08:46:05;102522.38;;;-0.47;99.43
75036;BME280;64247;51.540;5.854;2023-01-29T08:48:07;102527.72;;;-0.47;99.10
75036;BME280;64247;51.540;5.854;2023-01-29T08:50:09;102531.41;;;-0.49;99.14
75036;BME280;64247;51.540;5.854;2023-01-29T08:52:10;102529.19;;;-0.52;99.30
75036;BME280;64247;51.540;5.854;2023-01-29T08:54:11;102529.19;;;-0.52;99.71
75036;BME280;64247;51.540;5.854;2023-01-29T08:56:12;102520.16;;;-0.51;99.34
75036;BME280;64247;51.540;5.854;2023-01-29T08:58:13;102528.16;;;-0.51;100.00
75036;BME280;64247;51.540;5.854;2023-01-29T09:00:14;102526.88;;;-0.48;100.00
75036;BME280;64247;51.540;5.854;2023-01-29T09:02:15;102516.44;;;-0.50;99.97
75036;BME280;64247;51.540;5.854;2023-01-29T09:04:16;102514.56;;;-0.49;100.00
75036;BME280;64247;51.540;5.854;2023-01-29T09:06:17;102521.09;;;-0.45;100.00
75036;BME280;64247;51.540;5.854;2023-01-29T09:08:18;102510.44;;;-0.45;100.00
75036;BME280;64247;51.540;5.854;2023-01-29T09:10:19;102512.88;;;-0.43;99.86
75036;BME280;64247;51.540;5.854;2023-01-29T09:12:20;102518.34;;;-0.38;100.00
75036;BME280;64247;51.540;5.854;2023-01-29T09:14:21;102507.00;;;-0.34;99.61
75036;BME280;64247;51.540;5.854;2023-01-29T09:16:21;102503.09;;;-0.31;99.85
75036;BME280;64247;51.540;5.854;2023-01-29T09:18:22;102501.81;;;-0.28;99.16
75036;BME280;64247;51.540;5.854;2023-01-29T09:20:24;102497.03;;;-0.26;98.84
75036;BME280;64247;51.540;5.854;2023-01-29T09:22:24;102490.09;;;-0.27;98.87
75036;BME280;64247;51.540;5.854;2023-01-29T09:24:26;102494.72;;;-0.23;99.08
75036;BME280;64247;51.540;5.854;2023-01-29T09:26:26;102495.94;;;-0.19;98.62
75036;BME280;64247;51.540;5.854;2023-01-29T09:28:27;102498.16;;;-0.15;98.20
75036;BME280;64247;51.540;5.854;2023-01-29T09:30:28;102497.44;;;-0.11;98.10
75036;BME280;64247;51.540;5.854;2023-01-29T09:32:29;102503.97;;;-0.07;98.15
75036;BME280;64247;51.540;5.854;2023-01-29T09:34:30;102502.78;;;-0.11;97.47
75036;BME280;64247;51.540;5.854;2023-01-29T09:36:31;102504.66;;;-0.11;98.33
75036;BME280;64247;51.540;5.854;2023-01-29T09:38:32;102502.94;;;-0.06;98.62
75036;BME280;64247;51.540;5.854;2023-01-29T09:40:58;102504.22;;;-0.08;98.03
75036;BME280;64247;51.540;5.854;2023-01-29T09:43:17;102499.66;;;-0.08;97.62
75036;BME280;64247;51.540;5.854;2023-01-29T09:45:23;102505.97;;;-0.02;97.95
75036;BME280;64247;51.540;5.854;2023-01-29T09:47:27;102498.75;;;-0.02;97.62
75036;BME280;64247;51.540;5.854;2023-01-29T09:49:42;102499.78;;;-0.03;97.58
75036;BME280;64247;51.540;5.854;2023-01-29T09:51:55;102497.00;;;-0.08;98.16
75036;BME280;64247;51.540;5.854;2023-01-29T09:54:23;102498.41;;;-0.05;97.56
75036;BME280;64247;51.540;5.854;2023-01-29T09:56:30;102490.16;;;-0.04;97.74
75036;BME280;64247;51.540;5.854;2023-01-29T09:58:39;102490.91;;;0.04;98.00
75036;BME280;64247;51.540;5.854;2023-01-29T10:04:24;102498.16;;;-0.04;98.19
75036;BME280;64247;51.540;5.854;2023-01-29T10:10:17;102503.06;;;-0.01;97.46
75036;BME280;64247;51.540;5.854;2023-01-29T10:24:57;102498.19;;;0.08;97.46
75036;BME280;64247;51.540;5.854;2023-01-29T10:27:02;102503.09;;;0.11;97.41
75036;BME280;64247;51.540;5.854;2023-01-29T10:29:15;102502.84;;;0.13;97.00
75036;BME280;64247;51.540;5.854;2023-01-29T10:31:23;102494.75;;;0.20;97.20
75036;BME280;64247;51.540;5.854;2023-01-29T10:33:40;102491.63;;;0.23;96.62
75036;BME280;64247;51.540;5.854;2023-01-29T10:35:51;102500.69;;;0.22;96.60
75036;BME280;64247;51.540;5.854;2023-01-29T10:38:07;102502.53;;;0.21;96.49
75036;BME280;64247;51.540;5.854;2023-01-29T10:40:27;102493.81;;;0.26;96.28
75036;BME280;64247;51.540;5.854;2023-01-29T10:42:40;102494.50;;;0.21;96.51
75036;BME280;64247;51.540;5.854;2023-01-29T10:54:31;102490.00;;;0.34;95.94
75036;BME280;64247;51.540;5.854;2023-01-29T10:57:32;102485.47;;;0.34;95.88
75036;BME280;64247;51.540;5.854;2023-01-29T11:00:06;102473.75;;;0.35;95.97
75036;BME280;64247;51.540;5.854;2023-01-29T11:02:18;102479.44;;;0.39;95.98
75036;BME280;64247;51.540;5.854;2023-01-29T11:04:20;102468.31;;;0.42;95.67
75036;BME280;64247;51.540;5.854;2023-01-29T11:06:27;102471.88;;;0.47;94.88
75036;BME280;64247;51.540;5.854;2023-01-29T11:08:36;102459.69;;;0.52;94.50
75036;BME280;64247;51.540;5.854;2023-01-29T11:10:54;102454.22;;;0.58;94.40
75036;BME280;64247;51.540;5.854;2023-01-29T11:13:04;102453.31;;;0.65;94.52
75036;BME280;64247;51.540;5.854;2023-01-29T11:15:31;102447.38;;;0.62;94.44
75036;BME280;64247;51.540;5.854;2023-01-29T11:17:35;102449.81;;;0.64;94.16
75036;BME280;64247;51.540;5.854;2023-01-29T11:19:41;102437.72;;;0.61;94.64
75036;BME280;64247;51.540;5.854;2023-01-29T11:22:02;102434.94;;;0.68;93.11
75036;BME280;64247;51.540;5.854;2023-01-29T11:24:06;102429.13;;;0.71;93.46
75036;BME280;64247;51.540;5.854;2023-01-29T11:26:19;102428.88;;;0.73;93.11
75036;BME280;64247;51.540;5.854;2023-01-29T11:28:46;102415.06;;;0.64;93.75
75036;BME280;64247;51.540;5.854;2023-01-29T11:30:49;102424.00;;;0.70;93.55
75036;BME280;64247;51.540;5.854;2023-01-29T11:33:21;102414.00;;;0.77;93.70
75036;BME280;64247;51.540;5.854;2023-01-29T11:35:24;102420.97;;;0.78;93.70
75036;BME280;64247;51.540;5.854;2023-01-29T11:37:36;102421.56;;;0.80;92.87
75036;BME280;64247;51.540;5.854;2023-01-29T11:39:43;102410.72;;;0.87;93.00
75036;BME280;64247;51.540;5.854;2023-01-29T11:42:03;102408.38;;;0.90;92.21
75036;BME280;64247;51.540;5.854;2023-01-29T11:44:17;102383.75;;;0.88;92.59
75036;BME280;64247;51.540;5.854;2023-01-29T11:46:19;102383.63;;;0.95;93.40
75036;BME280;64247;51.540;5.854;2023-01-29T11:48:21;102382.81;;;0.94;92.00
75036;BME280;64247;51.540;5.854;2023-01-29T11:50:30;102375.13;;;0.98;92.19
75036;BME280;64247;51.540;5.854;2023-01-29T11:52:36;102376.97;;;0.98;92.02
75036;BME280;64247;51.540;5.854;2023-01-29T11:54:50;102356.88;;;0.95;92.65
75036;BME280;64247;51.540;5.854;2023-01-29T11:56:57;102346.28;;;1.00;91.62
75036;BME280;64247;51.540;5.854;2023-01-29T11:58:59;102338.59;;;1.04;91.69
75036;BME280;64247;51.540;5.854;2023-01-29T12:01:04;102343.94;;;1.04;91.86
75036;BME280;64247;51.540;5.854;2023-01-29T12:03:20;102345.44;;;1.12;92.76
75036;BME280;64247;51.540;5.854;2023-01-29T12:05:28;102331.25;;;1.11;91.07
75036;BME280;64247;51.540;5.854;2023-01-29T12:07:29;102319.59;;;1.17;91.27
75036;BME280;64247;51.540;5.854;2023-01-29T12:09:31;102324.69;;;1.19;91.42